sensor_id;sensor_type;location;lat;lon;timestamp;P1;durP1;ratioP1;P2;durP2;ratioP2
12950;SDS011;6540;50.858;7.232;2023-04-24T00:00:12;0.90;;;0.90;;
12950;SDS011;6540;50.858;7.232;2023-04-24T00:02:39;1.00;;;0.90;;
12950;SDS011;6540;50.858;7.232;2023-04-24T00:05:06;1.00;;;1.00;;
12950;SDS011;6540;50.858;7.232;2023-04-24T00:07:32;1.03;;;1.03;;
12950;SDS011;6540;50.858;7.232;2023-04-24T00:09:58;1.10;;;1.00;;
12950;SDS011;6540;50.858;7.232;2023-04-24T00:12:24;0.90;;;0.90;;
12950;SDS011;6540;50.858;7.232;2023-04-24T00:14:50;1.83;;;1.20;;
12950;SDS011;6540;50.858;7.232;2023-04-24T00:17:15;1.73;;;1.10;;
12950;SDS011;6540;50.858;7.232;2023-04-24T00:19:41;1.20;;;1.10;;
12950;SDS011;6540;50.858;7.232;2023-04-24T00:22:06;0.80;;;0.80;;
12950;SDS011;6540;50.858;7.232;2023-04-24T00:24:32;1.07;;;1.07;;
12950;SDS011;6540;50.858;7.232;2023-04-24T00:26:57;1.03;;;0.90;;
12950;SDS011;6540;50.858;7.232;2023-04-24T00:29:23;1.17;;;0.93;;
12950;SDS011;6540;50.858;7.232;2023-04-24T00:31:48;0.90;;;0.90;;
12950;SDS011;6540;50.858;7.232;2023-04-24T00:34:14;1.00;;;1.00;;
12950;SDS011;6540;50.858;7.232;2023-04-24T00:36:39;0.70;;;0.70;;
12950;SDS011;6540;50.858;7.232;2023-04-24T00:39:05;0.83;;;0.83;;
12950;SDS011;6540;50.858;7.232;2023-04-24T00:41:30;1.10;;;1.10;;
12950;SDS011;6540;50.858;7.232;2023-04-24T00:43:56;0.70;;;0.70;;
12950;SDS011;6540;50.858;7.232;2023-04-24T00:46:21;1.10;;;1.00;;
12950;SDS011;6540;50.858;7.232;2023-04-24T00:48:47;1.27;;;0.90;;
12950;SDS011;6540;50.858;7.232;2023-04-24T00:51:12;0.90;;;0.90;;
12950;SDS011;6540;50.858;7.232;2023-04-24T00:53:38;0.73;;;0.73;;
12950;SDS011;6540;50.858;7.232;2023-04-24T00:56:03;0.70;;;0.70;;
12950;SDS011;6540;50.858;7.232;2023-04-24T00:58:30;1.03;;;0.90;;
12950;SDS011;6540;50.858;7.232;2023-04-24T01:00:56;1.23;;;0.60;;
12950;SDS011;6540;50.858;7.232;2023-04-24T01:03:23;0.77;;;0.77;;
12950;SDS011;6540;50.858;7.232;2023-04-24T01:05:51;0.90;;;0.90;;
12950;SDS011;6540;50.858;7.232;2023-04-24T01:08:17;1.40;;;0.60;;
12950;SDS011;6540;50.858;7.232;2023-04-24T01:10:45;1.23;;;0.80;;
12950;SDS011;6540;50.858;7.232;2023-04-24T01:13:12;0.70;;;0.70;;
12950;SDS011;6540;50.858;7.232;2023-04-24T01:15:38;1.10;;;1.10;;
12950;SDS011;6540;50.858;7.232;2023-04-24T01:18:03;0.80;;;0.80;;
12950;SDS011;6540;50.858;7.232;2023-04-24T01:20:29;0.80;;;0.80;;
12950;SDS011;6540;50.858;7.232;2023-04-24T01:22:55;1.33;;;0.77;;
12950;SDS011;6540;50.858;7.232;2023-04-24T01:25:21;0.90;;;0.90;;
12950;SDS011;6540;50.858;7.232;2023-04-24T01:27:47;0.87;;;0.87;;
12950;SDS011;6540;50.858;7.232;2023-04-24T01:30:13;2.87;;;0.90;;
12950;SDS011;6540;50.858;7.232;2023-04-24T01:32:38;1.10;;;1.10;;
12950;SDS011;6540;50.858;7.232;2023-04-24T01:35:05;1.67;;;0.77;;
12950;SDS011;6540;50.858;7.232;2023-04-24T01:37:31;0.67;;;0.67;;
12950;SDS011;6540;50.858;7.232;2023-04-24T01:39:58;0.73;;;0.73;;
12950;SDS011;6540;50.858;7.232;2023-04-24T01:42:23;0.97;;;0.97;;
12950;SDS011;6540;50.858;7.232;2023-04-24T01:44:49;2.57;;;1.00;;
12950;SDS011;6540;50.858;7.232;2023-04-24T01:47:16;1.60;;;1.10;;
12950;SDS011;6540;50.858;7.232;2023-04-24T01:49:41;2.27;;;1.20;;
12950;SDS011;6540;50.858;7.232;2023-04-24T01:52:07;1.20;;;1.10;;
12950;SDS011;6540;50.858;7.232;2023-04-24T01:54:32;1.33;;;1.20;;
12950;SDS011;6540;50.858;7.232;2023-04-24T01:56:58;1.30;;;1.20;;
12950;SDS011;6540;50.858;7.232;2023-04-24T01:59:25;1.53;;;1.43;;
12950;SDS011;6540;50.858;7.232;2023-04-24T02:01:52;1.30;;;1.20;;
12950;SDS011;6540;50.858;7.232;2023-04-24T02:04:18;1.50;;;1.40;;
12950;SDS011;6540;50.858;7.232;2023-04-24T02:06:43;1.23;;;1.13;;
12950;SDS011;6540;50.858;7.232;2023-04-24T02:09:08;1.73;;;1.40;;
12950;SDS011;6540;50.858;7.232;2023-04-24T02:11:35;1.70;;;1.60;;
12950;SDS011;6540;50.858;7.232;2023-04-24T02:14:01;1.57;;;1.47;;
12950;SDS011;6540;50.858;7.232;2023-04-24T02:16:27;1.63;;;1.53;;
12950;SDS011;6540;50.858;7.232;2023-04-24T02:18:55;5.70;;;1.50;;
12950;SDS011;6540;50.858;7.232;2023-04-24T02:21:20;2.00;;;1.47;;
12950;SDS011;6540;50.858;7.232;2023-04-24T02:23:45;1.70;;;1.60;;
12950;SDS011;6540;50.858;7.232;2023-04-24T02:26:11;2.00;;;1.70;;
12950;SDS011;6540;50.858;7.232;2023-04-24T02:28:36;1.83;;;1.67;;
12950;SDS011;6540;50.858;7.232;2023-04-24T02:31:01;1.70;;;1.60;;
12950;SDS011;6540;50.858;7.232;2023-04-24T02:33:27;1.60;;;1.27;;
12950;SDS011;6540;50.858;7.232;2023-04-24T02:35:52;1.83;;;1.50;;
12950;SDS011;6540;50.858;7.232;2023-04-24T02:38:17;1.80;;;1.70;;
12950;SDS011;6540;50.858;7.232;2023-04-24T02:40:43;1.87;;;1.60;;
12950;SDS011;6540;50.858;7.232;2023-04-24T02:43:08;2.80;;;2.50;;
12950;SDS011;6540;50.858;7.232;2023-04-24T02:45:34;3.23;;;1.90;;
12950;SDS011;6540;50.858;7.232;2023-04-24T02:47:59;2.10;;;2.00;;
12950;SDS011;6540;50.858;7.232;2023-04-24T02:50:25;2.60;;;2.40;;
12950;SDS011;6540;50.858;7.232;2023-04-24T02:52:50;2.70;;;2.33;;
12950;SDS011;6540;50.858;7.232;2023-04-24T02:55:15;3.03;;;2.37;;
12950;SDS011;6540;50.858;7.232;2023-04-24T02:57:41;2.67;;;2.47;;
12950;SDS011;6540;50.858;7.232;2023-04-24T03:00:06;2.60;;;2.40;;
12950;SDS011;6540;50.858;7.232;2023-04-24T03:02:32;2.77;;;2.30;;
12950;SDS011;6540;50.858;7.232;2023-04-24T03:04:57;4.40;;;2.70;;
12950;SDS011;6540;50.858;7.232;2023-04-24T03:07:23;2.50;;;2.23;;
12950;SDS011;6540;50.858;7.232;2023-04-24T03:09:49;2.77;;;2.53;;
12950;SDS011;6540;50.858;7.232;2023-04-24T03:12:14;3.93;;;2.97;;
12950;SDS011;6540;50.858;7.232;2023-04-24T03:14:42;3.13;;;2.83;;
12950;SDS011;6540;50.858;7.232;2023-04-24T03:17:07;3.43;;;2.93;;
12950;SDS011;6540;50.858;7.232;2023-04-24T03:19:32;2.87;;;2.37;;
12950;SDS011;6540;50.858;7.232;2023-04-24T03:21:57;3.87;;;3.17;;
12950;SDS011;6540;50.858;7.232;2023-04-24T03:24:23;3.63;;;3.20;;
12950;SDS011;6540;50.858;7.232;2023-04-24T03:26:48;3.23;;;2.80;;
12950;SDS011;6540;50.858;7.232;2023-04-24T03:29:13;4.83;;;3.40;;
12950;SDS011;6540;50.858;7.232;2023-04-24T03:31:39;7.27;;;3.60;;
12950;SDS011;6540;50.858;7.232;2023-04-24T03:34:04;3.40;;;2.83;;
12950;SDS011;6540;50.858;7.232;2023-04-24T03:36:29;3.60;;;2.90;;
12950;SDS011;6540;50.858;7.232;2023-04-24T03:38:56;3.30;;;3.00;;
12950;SDS011;6540;50.858;7.232;2023-04-24T03:41:21;3.43;;;3.13;;
12950;SDS011;6540;50.858;7.232;2023-04-24T03:43:47;4.03;;;3.60;;
12950;SDS011;6540;50.858;7.232;2023-04-24T03:46:13;3.50;;;3.07;;
12950;SDS011;6540;50.858;7.232;2023-04-24T03:48:38;3.17;;;2.83;;
12950;SDS011;6540;50.858;7.232;2023-04-24T03:51:03;4.30;;;3.20;;
12950;SDS011;6540;50.858;7.232;2023-04-24T03:53:29;3.70;;;2.73;;
12950;SDS011;6540;50.858;7.232;2023-04-24T03:55:54;3.10;;;2.80;;
12950;SDS011;6540;50.858;7.232;2023-04-24T03:58:20;4.77;;;3.47;;
12950;SDS011;6540;50.858;7.232;2023-04-24T04:00:45;3.23;;;2.60;;
12950;SDS011;6540;50.858;7.232;2023-04-24T04:03:12;6.13;;;3.50;;
12950;SDS011;6540;50.858;7.232;2023-04-24T04:05:39;5.57;;;2.97;;
12950;SDS011;6540;50.858;7.232;2023-04-24T04:08:05;5.10;;;3.17;;
12950;SDS011;6540;50.858;7.232;2023-04-24T04:10:32;3.17;;;2.97;;
12950;SDS011;6540;50.858;7.232;2023-04-24T04:13:01;4.60;;;3.13;;
12950;SDS011;6540;50.858;7.232;2023-04-24T04:15:26;4.00;;;3.30;;
12950;SDS011;6540;50.858;7.232;2023-04-24T04:17:52;4.50;;;3.40;;
12950;SDS011;6540;50.858;7.232;2023-04-24T04:20:17;5.20;;;2.90;;
12950;SDS011;6540;50.858;7.232;2023-04-24T04:22:42;3.47;;;3.17;;
12950;SDS011;6540;50.858;7.232;2023-04-24T04:25:08;3.17;;;2.87;;
12950;SDS011;6540;50.858;7.232;2023-04-24T04:27:33;3.80;;;3.33;;
12950;SDS011;6540;50.858;7.232;2023-04-24T04:30:03;4.40;;;3.20;;
12950;SDS011;6540;50.858;7.232;2023-04-24T04:32:31;3.17;;;2.87;;
12950;SDS011;6540;50.858;7.232;2023-04-24T04:34:58;3.07;;;2.77;;
12950;SDS011;6540;50.858;7.232;2023-04-24T04:37:28;3.37;;;2.90;;
12950;SDS011;6540;50.858;7.232;2023-04-24T04:39:59;4.13;;;2.77;;
12950;SDS011;6540;50.858;7.232;2023-04-24T04:42:26;3.70;;;3.30;;
12950;SDS011;6540;50.858;7.232;2023-04-24T04:44:53;6.50;;;2.80;;
12950;SDS011;6540;50.858;7.232;2023-04-24T04:47:19;3.10;;;2.33;;
12950;SDS011;6540;50.858;7.232;2023-04-24T04:49:49;2.83;;;2.60;;
12950;SDS011;6540;50.858;7.232;2023-04-24T04:52:16;3.43;;;3.03;;
12950;SDS011;6540;50.858;7.232;2023-04-24T04:54:42;3.20;;;2.80;;
12950;SDS011;6540;50.858;7.232;2023-04-24T04:57:08;6.67;;;3.00;;
12950;SDS011;6540;50.858;7.232;2023-04-24T04:59:33;2.53;;;2.30;;
12950;SDS011;6540;50.858;7.232;2023-04-24T05:01:59;4.57;;;2.50;;
12950;SDS011;6540;50.858;7.232;2023-04-24T05:04:24;3.03;;;2.80;;
12950;SDS011;6540;50.858;7.232;2023-04-24T05:06:50;2.60;;;2.27;;
12950;SDS011;6540;50.858;7.232;2023-04-24T05:09:16;3.53;;;3.20;;
12950;SDS011;6540;50.858;7.232;2023-04-24T05:11:41;3.03;;;2.77;;
12950;SDS011;6540;50.858;7.232;2023-04-24T05:14:06;2.70;;;2.50;;
12950;SDS011;6540;50.858;7.232;2023-04-24T05:16:32;3.07;;;2.77;;
12950;SDS011;6540;50.858;7.232;2023-04-24T05:18:57;3.10;;;2.80;;
12950;SDS011;6540;50.858;7.232;2023-04-24T05:21:23;3.57;;;2.97;;
12950;SDS011;6540;50.858;7.232;2023-04-24T05:23:48;2.50;;;2.30;;
12950;SDS011;6540;50.858;7.232;2023-04-24T05:26:13;3.30;;;2.97;;
12950;SDS011;6540;50.858;7.232;2023-04-24T05:28:39;2.93;;;2.60;;
12950;SDS011;6540;50.858;7.232;2023-04-24T05:31:09;4.13;;;3.07;;
12950;SDS011;6540;50.858;7.232;2023-04-24T05:33:35;2.83;;;2.53;;
12950;SDS011;6540;50.858;7.232;2023-04-24T05:36:00;3.43;;;3.07;;
12950;SDS011;6540;50.858;7.232;2023-04-24T05:38:25;3.30;;;2.70;;
12950;SDS011;6540;50.858;7.232;2023-04-24T05:40:51;4.57;;;3.13;;
12950;SDS011;6540;50.858;7.232;2023-04-24T05:43:16;7.07;;;3.20;;
12950;SDS011;6540;50.858;7.232;2023-04-24T05:45:41;4.77;;;3.10;;
12950;SDS011;6540;50.858;7.232;2023-04-24T05:48:07;2.50;;;2.30;;
12950;SDS011;6540;50.858;7.232;2023-04-24T05:50:32;3.77;;;3.30;;
12950;SDS011;6540;50.858;7.232;2023-04-24T05:52:57;4.30;;;3.30;;
12950;SDS011;6540;50.858;7.232;2023-04-24T05:55:24;3.43;;;2.73;;
12950;SDS011;6540;50.858;7.232;2023-04-24T05:57:50;3.23;;;2.70;;
12950;SDS011;6540;50.858;7.232;2023-04-24T06:00:16;3.80;;;2.73;;
12950;SDS011;6540;50.858;7.232;2023-04-24T06:02:42;3.17;;;2.87;;
12950;SDS011;6540;50.858;7.232;2023-04-24T06:05:08;3.53;;;2.63;;
12950;SDS011;6540;50.858;7.232;2023-04-24T06:07:33;3.27;;;2.77;;
12950;SDS011;6540;50.858;7.232;2023-04-24T06:09:58;3.17;;;2.87;;
12950;SDS011;6540;50.858;7.232;2023-04-24T06:12:24;3.30;;;2.63;;
12950;SDS011;6540;50.858;7.232;2023-04-24T06:14:50;2.70;;;2.50;;
12950;SDS011;6540;50.858;7.232;2023-04-24T06:17:16;5.03;;;2.90;;
12950;SDS011;6540;50.858;7.232;2023-04-24T06:19:42;3.77;;;3.17;;
12950;SDS011;6540;50.858;7.232;2023-04-24T06:22:08;3.43;;;2.93;;
12950;SDS011;6540;50.858;7.232;2023-04-24T06:24:34;3.30;;;3.00;;
12950;SDS011;6540;50.858;7.232;2023-04-24T06:26:59;2.83;;;2.60;;
12950;SDS011;6540;50.858;7.232;2023-04-24T06:29:25;3.37;;;2.90;;
12950;SDS011;6540;50.858;7.232;2023-04-24T06:31:50;4.67;;;3.03;;
12950;SDS011;6540;50.858;7.232;2023-04-24T06:34:16;3.80;;;3.10;;
12950;SDS011;6540;50.858;7.232;2023-04-24T06:36:41;3.83;;;3.40;;
12950;SDS011;6540;50.858;7.232;2023-04-24T06:39:07;4.87;;;2.97;;
12950;SDS011;6540;50.858;7.232;2023-04-24T06:41:32;3.53;;;3.13;;
12950;SDS011;6540;50.858;7.232;2023-04-24T06:43:57;6.87;;;3.43;;
12950;SDS011;6540;50.858;7.232;2023-04-24T06:46:23;3.80;;;3.40;;
12950;SDS011;6540;50.858;7.232;2023-04-24T06:48:53;7.97;;;4.00;;
12950;SDS011;6540;50.858;7.232;2023-04-24T06:51:25;4.17;;;3.77;;
12950;SDS011;6540;50.858;7.232;2023-04-24T06:53:54;4.63;;;4.10;;
12950;SDS011;6540;50.858;7.232;2023-04-24T06:56:21;5.03;;;4.03;;
12950;SDS011;6540;50.858;7.232;2023-04-24T06:58:47;5.50;;;4.20;;
12950;SDS011;6540;50.858;7.232;2023-04-24T07:01:12;5.80;;;3.87;;
12950;SDS011;6540;50.858;7.232;2023-04-24T07:03:38;4.27;;;3.83;;
12950;SDS011;6540;50.858;7.232;2023-04-24T07:06:04;4.73;;;3.83;;
12950;SDS011;6540;50.858;7.232;2023-04-24T07:08:30;5.20;;;4.70;;
12950;SDS011;6540;50.858;7.232;2023-04-24T07:10:55;4.57;;;4.13;;
12950;SDS011;6540;50.858;7.232;2023-04-24T07:13:21;4.67;;;4.27;;
12950;SDS011;6540;50.858;7.232;2023-04-24T07:15:47;5.37;;;4.87;;
12950;SDS011;6540;50.858;7.232;2023-04-24T07:18:15;5.20;;;4.70;;
12950;SDS011;6540;50.858;7.232;2023-04-24T07:20:41;6.10;;;5.00;;
12950;SDS011;6540;50.858;7.232;2023-04-24T07:23:06;5.27;;;4.30;;
12950;SDS011;6540;50.858;7.232;2023-04-24T07:25:32;4.30;;;3.87;;
12950;SDS011;6540;50.858;7.232;2023-04-24T07:27:57;4.60;;;3.40;;
12950;SDS011;6540;50.858;7.232;2023-04-24T07:30:23;5.87;;;3.63;;
12950;SDS011;6540;50.858;7.232;2023-04-24T07:32:48;3.87;;;3.53;;
12950;SDS011;6540;50.858;7.232;2023-04-24T07:35:13;4.60;;;3.40;;
12950;SDS011;6540;50.858;7.232;2023-04-24T07:37:39;3.30;;;3.00;;
12950;SDS011;6540;50.858;7.232;2023-04-24T07:40:05;5.40;;;2.90;;
12950;SDS011;6540;50.858;7.232;2023-04-24T07:42:31;3.40;;;3.10;;
12950;SDS011;6540;50.858;7.232;2023-04-24T07:44:56;2.60;;;2.40;;
12950;SDS011;6540;50.858;7.232;2023-04-24T07:47:22;2.60;;;2.40;;
12950;SDS011;6540;50.858;7.232;2023-04-24T07:49:47;2.27;;;2.07;;
12950;SDS011;6540;50.858;7.232;2023-04-24T07:52:12;2.80;;;2.20;;
12950;SDS011;6540;50.858;7.232;2023-04-24T07:54:38;2.30;;;1.90;;
12950;SDS011;6540;50.858;7.232;2023-04-24T07:57:03;1.80;;;1.70;;
12950;SDS011;6540;50.858;7.232;2023-04-24T07:59:29;4.03;;;1.90;;
12950;SDS011;6540;50.858;7.232;2023-04-24T08:01:54;1.73;;;1.50;;
12950;SDS011;6540;50.858;7.232;2023-04-24T08:04:19;2.50;;;1.60;;
12950;SDS011;6540;50.858;7.232;2023-04-24T08:06:46;1.87;;;1.77;;
12950;SDS011;6540;50.858;7.232;2023-04-24T08:09:12;1.67;;;1.57;;
12950;SDS011;6540;50.858;7.232;2023-04-24T08:11:38;4.00;;;1.67;;
12950;SDS011;6540;50.858;7.232;2023-04-24T08:14:03;1.60;;;1.50;;
12950;SDS011;6540;50.858;7.232;2023-04-24T08:16:28;1.90;;;1.80;;
12950;SDS011;6540;50.858;7.232;2023-04-24T08:18:54;1.70;;;1.60;;
12950;SDS011;6540;50.858;7.232;2023-04-24T08:21:19;1.70;;;1.40;;
12950;SDS011;6540;50.858;7.232;2023-04-24T08:23:45;1.37;;;1.27;;
12950;SDS011;6540;50.858;7.232;2023-04-24T08:26:11;1.60;;;1.40;;
12950;SDS011;6540;50.858;7.232;2023-04-24T08:28:37;1.80;;;1.70;;
12950;SDS011;6540;50.858;7.232;2023-04-24T08:31:03;2.13;;;1.87;;
12950;SDS011;6540;50.858;7.232;2023-04-24T08:33:28;2.13;;;1.77;;
12950;SDS011;6540;50.858;7.232;2023-04-24T08:35:59;1.60;;;1.50;;
12950;SDS011;6540;50.858;7.232;2023-04-24T08:38:26;1.70;;;1.60;;
12950;SDS011;6540;50.858;7.232;2023-04-24T08:40:52;2.23;;;2.00;;
12950;SDS011;6540;50.858;7.232;2023-04-24T08:43:17;1.80;;;1.70;;
12950;SDS011;6540;50.858;7.232;2023-04-24T08:45:46;2.23;;;2.00;;
12950;SDS011;6540;50.858;7.232;2023-04-24T08:48:12;2.50;;;2.30;;
12950;SDS011;6540;50.858;7.232;2023-04-24T08:50:38;2.10;;;1.80;;
12950;SDS011;6540;50.858;7.232;2023-04-24T08:53:03;1.70;;;1.60;;
12950;SDS011;6540;50.858;7.232;2023-04-24T08:55:30;2.27;;;2.03;;
12950;SDS011;6540;50.858;7.232;2023-04-24T08:57:55;1.67;;;1.57;;
12950;SDS011;6540;50.858;7.232;2023-04-24T09:00:22;1.87;;;1.73;;
12950;SDS011;6540;50.858;7.232;2023-04-24T09:02:48;1.97;;;1.80;;
12950;SDS011;6540;50.858;7.232;2023-04-24T09:05:16;2.47;;;1.77;;
12950;SDS011;6540;50.858;7.232;2023-04-24T09:07:43;2.70;;;1.87;;
12950;SDS011;6540;50.858;7.232;2023-04-24T09:10:11;1.70;;;1.60;;
12950;SDS011;6540;50.858;7.232;2023-04-24T09:12:37;1.50;;;1.40;;
12950;SDS011;6540;50.858;7.232;2023-04-24T09:15:03;4.43;;;2.57;;
12950;SDS011;6540;50.858;7.232;2023-04-24T09:17:30;2.17;;;1.93;;
12950;SDS011;6540;50.858;7.232;2023-04-24T09:19:56;2.07;;;1.80;;
12950;SDS011;6540;50.858;7.232;2023-04-24T09:22:21;1.77;;;1.57;;
12950;SDS011;6540;50.858;7.232;2023-04-24T09:24:46;1.93;;;1.77;;
12950;SDS011;6540;50.858;7.232;2023-04-24T09:27:13;2.47;;;2.27;;
12950;SDS011;6540;50.858;7.232;2023-04-24T09:29:39;2.23;;;2.00;;
12950;SDS011;6540;50.858;7.232;2023-04-24T09:32:19;3.43;;;2.43;;
12950;SDS011;6540;50.858;7.232;2023-04-24T09:35:04;5.73;;;2.63;;
12950;SDS011;6540;50.858;7.232;2023-04-24T09:37:34;3.07;;;2.50;;
12950;SDS011;6540;50.858;7.232;2023-04-24T09:40:34;3.27;;;2.67;;
12950;SDS011;6540;50.858;7.232;2023-04-24T09:42:53;2.90;;;2.03;;
12950;SDS011;6540;50.858;7.232;2023-04-24T09:45:21;3.90;;;3.37;;
12950;SDS011;6540;50.858;7.232;2023-04-24T09:47:50;2.43;;;2.23;;
12950;SDS011;6540;50.858;7.232;2023-04-24T09:50:17;4.60;;;3.00;;
12950;SDS011;6540;50.858;7.232;2023-04-24T09:52:43;4.67;;;2.80;;
12950;SDS011;6540;50.858;7.232;2023-04-24T09:55:10;4.30;;;3.10;;
12950;SDS011;6540;50.858;7.232;2023-04-24T09:57:46;3.20;;;2.90;;
12950;SDS011;6540;50.858;7.232;2023-04-24T10:00:25;6.63;;;3.57;;
12950;SDS011;6540;50.858;7.232;2023-04-24T10:02:59;5.43;;;3.47;;
12950;SDS011;6540;50.858;7.232;2023-04-24T10:05:27;3.50;;;3.20;;
12950;SDS011;6540;50.858;7.232;2023-04-24T10:08:18;5.07;;;4.10;;
12950;SDS011;6540;50.858;7.232;2023-04-24T10:10:43;5.70;;;3.97;;
12950;SDS011;6540;50.858;7.232;2023-04-24T10:13:10;6.77;;;4.40;;
12950;SDS011;6540;50.858;7.232;2023-04-24T10:15:37;7.77;;;4.17;;
12950;SDS011;6540;50.858;7.232;2023-04-24T10:18:04;4.10;;;3.70;;
12950;SDS011;6540;50.858;7.232;2023-04-24T10:20:30;7.07;;;4.37;;
12950;SDS011;6540;50.858;7.232;2023-04-24T10:22:56;5.83;;;4.83;;
12950;SDS011;6540;50.858;7.232;2023-04-24T10:25:24;5.57;;;4.50;;
12950;SDS011;6540;50.858;7.232;2023-04-24T10:27:54;7.67;;;5.23;;
12950;SDS011;6540;50.858;7.232;2023-04-24T10:30:24;5.87;;;4.20;;
12950;SDS011;6540;50.858;7.232;2023-04-24T10:32:51;6.23;;;4.27;;
12950;SDS011;6540;50.858;7.232;2023-04-24T10:35:16;5.97;;;4.03;;
12950;SDS011;6540;50.858;7.232;2023-04-24T10:37:45;5.27;;;4.20;;
12950;SDS011;6540;50.858;7.232;2023-04-24T10:40:24;5.13;;;3.90;;
12950;SDS011;6540;50.858;7.232;2023-04-24T10:42:52;6.37;;;4.10;;
12950;SDS011;6540;50.858;7.232;2023-04-24T10:45:22;7.20;;;3.57;;
12950;SDS011;6540;50.858;7.232;2023-04-24T10:50:27;4.77;;;3.57;;
12950;SDS011;6540;50.858;7.232;2023-04-24T10:52:55;6.73;;;3.73;;
12950;SDS011;6540;50.858;7.232;2023-04-24T10:55:44;4.77;;;3.30;;
12950;SDS011;6540;50.858;7.232;2023-04-24T10:58:11;5.47;;;3.50;;
12950;SDS011;6540;50.858;7.232;2023-04-24T11:00:37;4.53;;;3.10;;
12950;SDS011;6540;50.858;7.232;2023-04-24T11:03:05;4.43;;;3.30;;
12950;SDS011;6540;50.858;7.232;2023-04-24T11:08:32;3.37;;;3.00;;
12950;SDS011;6540;50.858;7.232;2023-04-24T11:19:07;5.57;;;4.00;;
12950;SDS011;6540;50.858;7.232;2023-04-24T11:21:43;5.37;;;3.40;;
12950;SDS011;6540;50.858;7.232;2023-04-24T11:24:24;5.70;;;3.63;;
12950;SDS011;6540;50.858;7.232;2023-04-24T11:35:24;4.07;;;3.37;;
12950;SDS011;6540;50.858;7.232;2023-04-24T11:37:53;6.37;;;3.60;;
12950;SDS011;6540;50.858;7.232;2023-04-24T11:40:19;5.70;;;3.50;;
12950;SDS011;6540;50.858;7.232;2023-04-24T11:42:47;9.10;;;3.40;;
12950;SDS011;6540;50.858;7.232;2023-04-24T11:45:19;4.90;;;3.43;;
12950;SDS011;6540;50.858;7.232;2023-04-24T11:47:47;8.30;;;4.00;;
12950;SDS011;6540;50.858;7.232;2023-04-24T11:50:14;8.67;;;4.03;;
12950;SDS011;6540;50.858;7.232;2023-04-24T11:52:41;6.20;;;3.37;;
12950;SDS011;6540;50.858;7.232;2023-04-24T11:55:09;3.47;;;3.13;;
12950;SDS011;6540;50.858;7.232;2023-04-24T11:57:48;5.10;;;3.70;;
12950;SDS011;6540;50.858;7.232;2023-04-24T12:02:51;6.00;;;3.67;;
12950;SDS011;6540;50.858;7.232;2023-04-24T12:05:28;5.30;;;3.67;;
12950;SDS011;6540;50.858;7.232;2023-04-24T12:07:56;6.17;;;3.50;;
12950;SDS011;6540;50.858;7.232;2023-04-24T12:10:25;6.63;;;3.20;;
12950;SDS011;6540;50.858;7.232;2023-04-24T12:12:52;4.00;;;3.60;;
12950;SDS011;6540;50.858;7.232;2023-04-24T12:15:19;4.17;;;3.77;;
12950;SDS011;6540;50.858;7.232;2023-04-24T12:17:45;4.53;;;3.17;;
12950;SDS011;6540;50.858;7.232;2023-04-24T12:20:12;6.60;;;4.00;;
12950;SDS011;6540;50.858;7.232;2023-04-24T12:25:11;9.10;;;4.13;;
12950;SDS011;6540;50.858;7.232;2023-04-24T12:27:37;6.20;;;3.43;;
12950;SDS011;6540;50.858;7.232;2023-04-24T12:30:03;6.73;;;3.40;;
12950;SDS011;6540;50.858;7.232;2023-04-24T12:32:30;7.23;;;3.70;;
12950;SDS011;6540;50.858;7.232;2023-04-24T12:34:56;6.87;;;4.07;;
12950;SDS011;6540;50.858;7.232;2023-04-24T12:37:23;9.00;;;4.07;;
12950;SDS011;6540;50.858;7.232;2023-04-24T12:40:04;5.27;;;4.23;;
12950;SDS011;6540;50.858;7.232;2023-04-24T12:42:41;4.10;;;3.20;;
12950;SDS011;6540;50.858;7.232;2023-04-24T12:45:08;6.13;;;3.70;;
12950;SDS011;6540;50.858;7.232;2023-04-24T12:47:34;6.53;;;3.53;;
12950;SDS011;6540;50.858;7.232;2023-04-24T12:50:01;6.97;;;3.80;;
12950;SDS011;6540;50.858;7.232;2023-04-24T12:52:28;6.87;;;3.70;;
12950;SDS011;6540;50.858;7.232;2023-04-24T12:54:55;8.73;;;4.40;;
12950;SDS011;6540;50.858;7.232;2023-04-24T12:57:22;7.73;;;4.03;;
12950;SDS011;6540;50.858;7.232;2023-04-24T12:59:48;8.07;;;4.00;;
12950;SDS011;6540;50.858;7.232;2023-04-24T13:02:13;5.80;;;3.83;;
12950;SDS011;6540;50.858;7.232;2023-04-24T13:04:42;5.23;;;4.67;;
12950;SDS011;6540;50.858;7.232;2023-04-24T13:07:11;9.83;;;4.83;;
12950;SDS011;6540;50.858;7.232;2023-04-24T13:09:37;4.60;;;4.07;;
12950;SDS011;6540;50.858;7.232;2023-04-24T13:12:02;8.70;;;4.27;;
12950;SDS011;6540;50.858;7.232;2023-04-24T13:14:28;6.93;;;4.50;;
12950;SDS011;6540;50.858;7.232;2023-04-24T13:16:53;9.40;;;4.77;;
12950;SDS011;6540;50.858;7.232;2023-04-24T13:19:19;7.47;;;4.53;;
12950;SDS011;6540;50.858;7.232;2023-04-24T13:21:44;6.70;;;4.20;;
12950;SDS011;6540;50.858;7.232;2023-04-24T13:24:10;7.63;;;3.80;;
12950;SDS011;6540;50.858;7.232;2023-04-24T13:26:35;6.57;;;4.13;;
12950;SDS011;6540;50.858;7.232;2023-04-24T13:29:01;5.60;;;3.80;;
12950;SDS011;6540;50.858;7.232;2023-04-24T13:31:26;8.67;;;3.47;;
12950;SDS011;6540;50.858;7.232;2023-04-24T13:33:51;7.53;;;4.10;;
12950;SDS011;6540;50.858;7.232;2023-04-24T13:36:26;6.77;;;3.30;;
12950;SDS011;6540;50.858;7.232;2023-04-24T13:38:51;5.37;;;4.03;;
12950;SDS011;6540;50.858;7.232;2023-04-24T13:41:17;5.23;;;3.67;;
12950;SDS011;6540;50.858;7.232;2023-04-24T13:43:42;4.90;;;3.10;;
12950;SDS011;6540;50.858;7.232;2023-04-24T13:46:08;4.77;;;3.57;;
12950;SDS011;6540;50.858;7.232;2023-04-24T13:48:33;5.67;;;3.77;;
12950;SDS011;6540;50.858;7.232;2023-04-24T13:51:02;6.23;;;3.87;;
12950;SDS011;6540;50.858;7.232;2023-04-24T13:53:28;7.63;;;3.87;;
12950;SDS011;6540;50.858;7.232;2023-04-24T13:55:53;6.13;;;3.87;;
12950;SDS011;6540;50.858;7.232;2023-04-24T13:58:19;9.30;;;3.80;;
12950;SDS011;6540;50.858;7.232;2023-04-24T14:00:44;6.93;;;3.60;;
12950;SDS011;6540;50.858;7.232;2023-04-24T14:03:10;6.00;;;3.77;;
12950;SDS011;6540;50.858;7.232;2023-04-24T14:05:35;6.27;;;4.03;;
12950;SDS011;6540;50.858;7.232;2023-04-24T14:08:01;4.53;;;3.13;;
12950;SDS011;6540;50.858;7.232;2023-04-24T14:10:26;7.87;;;4.53;;
12950;SDS011;6540;50.858;7.232;2023-04-24T14:12:52;6.93;;;4.10;;
12950;SDS011;6540;50.858;7.232;2023-04-24T14:15:18;4.30;;;3.37;;
12950;SDS011;6540;50.858;7.232;2023-04-24T14:17:43;7.23;;;4.20;;
12950;SDS011;6540;50.858;7.232;2023-04-24T14:20:09;7.20;;;3.63;;
12950;SDS011;6540;50.858;7.232;2023-04-24T14:22:35;4.10;;;3.23;;
12950;SDS011;6540;50.858;7.232;2023-04-24T14:25:00;6.30;;;3.90;;
12950;SDS011;6540;50.858;7.232;2023-04-24T14:27:25;11.43;;;4.63;;
12950;SDS011;6540;50.858;7.232;2023-04-24T14:29:51;6.33;;;3.90;;
12950;SDS011;6540;50.858;7.232;2023-04-24T14:32:17;4.67;;;3.93;;
12950;SDS011;6540;50.858;7.232;2023-04-24T14:34:43;4.10;;;3.50;;
12950;SDS011;6540;50.858;7.232;2023-04-24T14:37:08;3.83;;;3.13;;
12950;SDS011;6540;50.858;7.232;2023-04-24T14:39:33;5.03;;;3.40;;
12950;SDS011;6540;50.858;7.232;2023-04-24T14:41:59;4.63;;;3.87;;
12950;SDS011;6540;50.858;7.232;2023-04-24T14:44:26;5.23;;;3.47;;
12950;SDS011;6540;50.858;7.232;2023-04-24T14:46:51;4.07;;;2.57;;
12950;SDS011;6540;50.858;7.232;2023-04-24T14:49:16;6.87;;;2.90;;
12950;SDS011;6540;50.858;7.232;2023-04-24T14:51:42;5.80;;;3.07;;
12950;SDS011;6540;50.858;7.232;2023-04-24T14:54:08;7.57;;;3.73;;
12950;SDS011;6540;50.858;7.232;2023-04-24T14:56:33;4.80;;;2.87;;
12950;SDS011;6540;50.858;7.232;2023-04-24T14:58:59;4.07;;;2.60;;
12950;SDS011;6540;50.858;7.232;2023-04-24T15:01:24;4.93;;;3.37;;
12950;SDS011;6540;50.858;7.232;2023-04-24T15:03:50;6.20;;;3.63;;
12950;SDS011;6540;50.858;7.232;2023-04-24T15:06:15;5.43;;;3.20;;
12950;SDS011;6540;50.858;7.232;2023-04-24T15:08:40;4.57;;;2.30;;
12950;SDS011;6540;50.858;7.232;2023-04-24T15:11:07;6.93;;;4.83;;
12950;SDS011;6540;50.858;7.232;2023-04-24T15:13:32;4.63;;;3.13;;
12950;SDS011;6540;50.858;7.232;2023-04-24T15:15:58;7.03;;;3.67;;
12950;SDS011;6540;50.858;7.232;2023-04-24T15:18:23;5.03;;;3.00;;
12950;SDS011;6540;50.858;7.232;2023-04-24T15:20:48;7.97;;;4.47;;
12950;SDS011;6540;50.858;7.232;2023-04-24T15:23:14;4.33;;;3.23;;